Time;durP1;ratioP1;P1;durP2;ratioP2;P2;SDS_P1;SDS_P2;PMS_P1;PMS_P2;Temp;Humidity;BMP_temperature;BMP_pressure;BME280_temperature;BME280_humidity;BME280_pressure;Samples;Min_cycle;Max_cycle;Signal;HPM_P1;HPM_P2
2022/01/01 00:00:46;;;;;;;65.43;29.40;;;11.20;99.90;;;;;;5088154;28;20101;-75
2022/01/01 00:03:11;;;;;;;72.55;30.05;;;11.20;99.90;;;;;;5081676;28;20127;-75
2022/01/01 00:05:37;;;;;;;67.53;30.70;;;11.10;99.90;;;;;;5084444;28;20049;-75
2022/01/01 00:08:05;;;;;;;69.47;33.10;;;11.10;99.90;;;;;;5084800;28;20044;-75
2022/01/01 00:10:31;;;;;;;71.65;34.33;;;11.20;99.90;;;;;;5085025;28;20040;-75
2022/01/01 00:12:57;;;;;;;66.57;33.30;;;11.20;99.90;;;;;;5083258;28;20169;-75
2022/01/01 00:15:23;;;;;;;72.45;35.40;;;11.10;99.90;;;;;;5116801;27;20143;-75
2022/01/01 00:17:48;;;;;;;74.05;35.25;;;11.10;99.90;;;;;;5088444;28;20039;-75
2022/01/01 00:20:14;;;;;;;74.88;36.00;;;11.20;99.90;;;;;;5085924;28;20028;-75
2022/01/01 00:22:42;;;;;;;65.97;33.92;;;11.20;99.90;;;;;;5081190;28;20490;-75
2022/01/01 00:25:11;;;;;;;73.88;37.20;;;11.10;99.90;;;;;;5078160;28;20068;-75
2022/01/01 00:27:36;;;;;;;68.85;33.67;;;11.10;99.90;;;;;;5084093;28;20044;-75
2022/01/01 00:30:06;;;;;;;69.50;33.97;;;11.10;99.90;;;;;;5080349;28;20040;-75
2022/01/01 00:32:37;;;;;;;70.68;32.85;;;11.10;99.90;;;;;;5075243;28;20055;-75
2022/01/01 00:35:03;;;;;;;61.90;32.58;;;11.10;99.90;;;;;;5075121;28;20078;-75
2022/01/01 00:37:28;;;;;;;75.32;32.72;;;11.10;99.90;;;;;;5079283;28;20033;-75
2022/01/01 00:39:55;;;;;;;64.60;30.00;;;11.10;99.90;;;;;;5079755;28;20047;-75
2022/01/01 00:42:21;;;;;;;69.15;29.75;;;11.10;99.90;;;;;;5080434;28;20024;-75
2022/01/01 00:44:47;;;;;;;64.90;27.23;;;11.10;99.90;;;;;;5083070;28;20115;-75
2022/01/01 00:47:13;;;;;;;61.38;26.25;;;11.00;99.90;;;;;;5079462;28;20044;-75
2022/01/01 00:49:38;;;;;;;61.72;24.77;;;11.00;99.90;;;;;;5080858;28;20127;-75
2022/01/01 00:52:04;;;;;;;60.97;24.48;;;11.10;99.90;;;;;;5110768;27;20048;-75
2022/01/01 00:54:30;;;;;;;68.63;25.58;;;11.00;99.90;;;;;;5110783;27;20036;-75
2022/01/01 00:56:56;;;;;;;59.20;23.30;;;11.50;99.90;;;;;;5078549;28;20033;-75
2022/01/01 00:59:21;;;;;;;62.92;23.20;;;11.00;99.90;;;;;;5084076;28;20055;-75
2022/01/01 01:01:47;;;;;;;53.63;22.58;;;11.00;99.90;;;;;;5080750;28;20044;-75
2022/01/01 01:04:12;;;;;;;54.78;20.02;;;11.00;99.90;;;;;;5078413;28;20054;-75
2022/01/01 01:06:38;;;;;;;43.78;19.58;;;11.10;99.90;;;;;;5080932;28;20556;-75
2022/01/01 01:09:04;;;;;;;55.33;20.05;;;11.00;99.90;;;;;;5078568;28;20394;-75
2022/01/01 01:11:29;;;;;;;47.97;18.05;;;11.00;99.90;;;;;;5083607;28;20043;-75
2022/01/01 01:13:59;;;;;;;51.05;17.13;;;11.00;99.90;;;;;;5082551;28;20561;-75
2022/01/01 01:16:28;;;;;;;63.88;17.35;;;11.00;99.90;;;;;;5090032;28;20035;-75
2022/01/01 01:18:54;;;;;;;52.10;17.23;;;11.00;99.90;;;;;;5086812;28;20058;-75
2022/01/01 01:21:24;;;;;;;52.50;18.13;;;11.00;99.90;;;;;;5087206;28;20495;-75
2022/01/01 01:23:50;;;;;;;50.10;18.67;;;11.10;99.90;;;;;;5084774;28;20048;-75
2022/01/01 01:26:16;;;;;;;54.78;21.65;;;11.00;99.90;;;;;;5082569;28;20047;-75
2022/01/01 01:28:48;;;;;;;52.42;19.88;;;11.00;99.90;;;;;;5114273;27;20040;-75
2022/01/01 01:31:16;;;;;;;58.17;22.42;;;11.00;99.90;;;;;;5102349;27;20104;-75
2022/01/01 01:33:42;;;;;;;54.08;24.13;;;11.00;99.90;;;;;;5084898;28;20393;-75
2022/01/01 01:36:08;;;;;;;53.35;24.83;;;10.90;99.90;;;;;;5088885;28;20450;-75
2022/01/01 01:38:36;;;;;;;55.17;28.02;;;10.90;99.90;;;;;;5085710;28;20075;-75
2022/01/01 01:41:04;;;;;;;64.10;30.17;;;10.90;99.90;;;;;;5088333;28;20088;-75
2022/01/01 01:43:30;;;;;;;71.32;33.13;;;10.90;99.90;;;;;;5086478;28;20023;-75
2022/01/01 01:45:57;;;;;;;76.43;36.80;;;10.90;99.90;;;;;;5085255;28;20040;-75
2022/01/01 01:48:23;;;;;;;72.70;39.70;;;10.80;99.90;;;;;;5089652;28;20131;-75
2022/01/01 01:50:48;;;;;;;81.50;42.13;;;10.80;99.90;;;;;;5118291;27;20167;-75
2022/01/01 01:53:14;;;;;;;80.43;41.92;;;10.80;99.90;;;;;;5083486;28;20145;-75
2022/01/01 01:55:39;;;;;;;89.65;45.60;;;10.70;99.90;;;;;;5087257;28;20047;-75
2022/01/01 01:58:05;;;;;;;87.85;46.15;;;10.70;99.90;;;;;;5083242;28;20454;-75
2022/01/01 02:03:11;;;;;;;75.20;43.50;;;10.80;99.90;;;;;;5082572;28;20452;-75
2022/01/01 02:05:38;;;;;;;81.88;42.20;;;10.70;99.90;;;;;;5086952;28;20044;-75
2022/01/01 02:08:09;;;;;;;87.45;44.67;;;10.70;99.90;;;;;;5083860;28;20048;-75
2022/01/01 02:10:35;;;;;;;82.88;44.58;;;10.70;99.90;;;;;;5086213;28;20036;-75
2022/01/01 02:13:10;;;;;;;78.60;42.25;;;10.60;99.90;;;;;;5080819;28;20036;-76
2022/01/01 02:18:17;;;;;;;80.53;43.10;;;10.60;99.90;;;;;;5085300;28;20139;-75
2022/01/01 02:20:49;;;;;;;79.40;44.80;;;10.60;99.90;;;;;;5083733;28;20119;-75
2022/01/01 02:23:21;;;;;;;82.80;46.67;;;10.60;99.90;;;;;;5077424;28;20040;-75
2022/01/01 02:25:49;;;;;;;87.18;46.40;;;10.60;99.90;;;;;;5090274;28;20036;-75
2022/01/01 02:28:15;;;;;;;89.45;47.10;;;10.60;99.90;;;;;;5086342;28;20040;-75
2022/01/01 02:30:41;;;;;;;80.88;46.83;;;10.60;99.90;;;;;;5087850;28;20044;-75
2022/01/01 02:33:07;;;;;;;90.32;47.45;;;10.70;99.90;;;;;;5084202;28;20072;-75
2022/01/01 02:35:32;;;;;;;87.70;46.42;;;10.70;99.90;;;;;;5088623;28;20028;-75
2022/01/01 02:38:01;;;;;;;91.38;46.63;;;10.80;99.90;;;;;;5086551;28;20185;-75
2022/01/01 02:40:27;;;;;;;77.22;43.47;;;10.80;99.90;;;;;;5082290;28;20040;-75
2022/01/01 02:42:53;;;;;;;82.75;45.15;;;10.80;99.90;;;;;;5083186;28;20035;-75
2022/01/01 02:45:20;;;;;;;82.63;45.28;;;10.80;99.90;;;;;;5083674;28;20040;-75
2022/01/01 02:47:46;;;;;;;81.75;46.42;;;10.90;99.90;;;;;;5085262;28;20045;-75
2022/01/01 02:50:12;;;;;;;78.57;44.90;;;10.90;99.90;;;;;;5084510;28;20093;-75
2022/01/01 02:52:37;;;;;;;87.82;46.47;;;10.80;99.90;;;;;;5082760;28;20132;-75
2022/01/01 02:55:04;;;;;;;85.45;47.78;;;10.90;99.90;;;;;;5085795;28;20124;-75
2022/01/01 02:57:30;;;;;;;88.43;47.35;;;10.90;99.90;;;;;;5083507;28;20036;-75
2022/01/01 02:59:56;;;;;;;87.22;48.50;;;10.90;99.90;;;;;;5084551;28;20188;-75
2022/01/01 03:02:21;;;;;;;85.10;45.17;;;10.90;99.90;;;;;;5082994;28;20121;-75
2022/01/01 03:04:47;;;;;;;88.35;48.65;;;10.90;99.90;;;;;;5120709;27;20623;-75
2022/01/01 03:07:13;;;;;;;99.93;50.03;;;10.90;99.90;;;;;;5088572;28;21479;-75
2022/01/01 03:09:38;;;;;;;86.75;49.40;;;10.90;99.90;;;;;;5117920;27;20128;-75
2022/01/01 03:12:07;;;;;;;87.63;50.25;;;10.90;99.90;;;;;;5084292;28;20039;-75
2022/01/01 03:14:33;;;;;;;85.32;48.90;;;10.90;99.90;;;;;;5087816;28;20169;-75
2022/01/01 03:16:59;;;;;;;87.82;51.05;;;10.90;99.90;;;;;;5090788;28;20138;-75
2022/01/01 03:19:25;;;;;;;92.03;51.63;;;10.90;99.90;;;;;;5087987;28;20505;-75
2022/01/01 03:21:50;;;;;;;92.65;50.22;;;10.90;99.90;;;;;;5085039;28;20054;-75
2022/01/01 03:24:16;;;;;;;93.22;54.90;;;10.90;99.90;;;;;;5089766;28;20063;-76
2022/01/01 03:26:42;;;;;;;96.20;54.10;;;10.90;99.90;;;;;;5082426;28;20040;-75
2022/01/01 03:29:08;;;;;;;98.53;54.97;;;10.80;99.90;;;;;;5118118;27;20524;-75
2022/01/01 03:31:34;;;;;;;101.60;55.72;;;10.80;99.90;;;;;;5117840;27;21626;-75
2022/01/01 03:34:00;;;;;;;91.68;54.70;;;10.90;99.90;;;;;;5089202;28;20049;-75
2022/01/01 03:36:27;;;;;;;96.20;58.08;;;10.90;99.90;;;;;;5087145;28;20143;-75
2022/01/01 03:38:53;;;;;;;97.45;58.58;;;10.90;99.90;;;;;;5088310;28;20036;-76
2022/01/01 03:41:19;;;;;;;95.63;58.20;;;10.90;99.90;;;;;;5089060;28;20618;-75
2022/01/01 03:43:45;;;;;;;104.90;60.00;;;10.90;99.90;;;;;;5085551;28;20368;-75
2022/01/01 03:46:11;;;;;;;95.45;60.55;;;10.80;99.90;;;;;;5089746;28;20793;-75
2022/01/01 03:48:37;;;;;;;111.20;61.05;;;10.90;99.90;;;;;;5121725;27;20447;-76
2022/01/01 03:51:02;;;;;;;98.15;61.05;;;10.90;99.90;;;;;;5092870;28;20075;-75
2022/01/01 03:53:28;;;;;;;104.18;61.45;;;10.90;99.90;;;;;;5086242;28;20034;-76
2022/01/01 03:55:54;;;;;;;100.20;64.18;;;10.90;99.90;;;;;;5088966;28;20064;-75
2022/01/01 03:58:19;;;;;;;125.35;68.47;;;10.80;99.90;;;;;;5088259;28;20111;-75
2022/01/01 04:00:45;;;;;;;104.70;65.05;;;10.80;99.90;;;;;;5087516;28;20562;-75
2022/01/01 04:03:12;;;;;;;108.47;66.03;;;10.80;99.90;;;;;;5119754;27;20027;-75
2022/01/01 04:05:42;;;;;;;112.30;67.10;;;10.80;99.90;;;;;;5122855;27;20040;-75
2022/01/01 04:08:30;;;;;;;105.30;64.53;;;10.80;99.90;;;;;;5089546;28;20048;-75
2022/01/01 04:10:59;;;;;;;103.20;66.28;;;10.80;99.90;;;;;;5090303;28;20058;-75
2022/01/01 04:13:25;;;;;;;114.60;66.55;;;10.80;99.90;;;;;;5116067;27;20524;-75
2022/01/01 04:15:50;;;;;;;109.28;66.88;;;10.90;99.90;;;;;;5089637;28;20032;-75
2022/01/01 04:18:26;;;;;;;112.22;67.28;;;10.90;99.90;;;;;;5087435;28;20130;-76
2022/01/01 04:20:51;;;;;;;107.10;64.78;;;10.80;99.90;;;;;;5082386;28;20534;-75
2022/01/01 04:23:17;;;;;;;103.13;65.55;;;10.90;99.90;;;;;;5087374;28;20043;-75
2022/01/01 04:25:44;;;;;;;107.35;65.22;;;10.80;99.90;;;;;;5087031;28;20553;-75
2022/01/01 04:28:09;;;;;;;110.78;63.13;;;10.90;99.90;;;;;;5116805;27;20170;-75
2022/01/01 04:30:35;;;;;;;102.70;62.58;;;10.90;99.90;;;;;;5089425;28;20056;-75
2022/01/01 04:33:01;;;;;;;98.10;62.60;;;10.90;99.90;;;;;;5086145;28;20044;-75
2022/01/01 04:35:27;;;;;;;103.68;63.35;;;10.90;99.90;;;;;;5124253;27;20415;-75
2022/01/01 04:37:53;;;;;;;106.40;64.63;;;10.90;99.90;;;;;;5087376;28;20386;-75
2022/01/01 04:40:19;;;;;;;103.88;63.45;;;10.90;99.90;;;;;;5087789;28;20044;-75
2022/01/01 04:42:45;;;;;;;106.60;64.28;;;10.90;99.90;;;;;;5087466;28;20109;-75
2022/01/01 04:45:12;;;;;;;98.70;65.53;;;10.90;99.90;;;;;;5085027;28;20051;-75
2022/01/01 04:47:37;;;;;;;109.35;64.85;;;10.90;99.90;;;;;;5074921;28;20055;-75
2022/01/01 04:50:04;;;;;;;105.45;66.75;;;10.90;99.90;;;;;;5083206;28;20040;-75
2022/01/01 04:52:30;;;;;;;109.00;68.55;;;10.90;99.90;;;;;;5081962;28;20051;-76
2022/01/01 04:54:56;;;;;;;108.43;66.53;;;11.00;99.90;;;;;;5083717;28;20503;-76
2022/01/01 04:57:30;;;;;;;111.13;69.00;;;11.00;99.90;;;;;;5119183;27;20036;-77
2022/01/01 04:59:56;;;;;;;108.05;68.00;;;11.00;99.90;;;;;;5087247;28;20178;-76
2022/01/01 05:02:22;;;;;;;108.70;66.60;;;10.90;99.90;;;;;;5085102;28;20079;-78
2022/01/01 05:04:47;;;;;;;115.25;66.88;;;11.00;99.90;;;;;;5085593;28;20039;-77
2022/01/01 05:07:13;;;;;;;102.00;64.93;;;11.00;99.90;;;;;;5092401;28;20031;-77
2022/01/01 05:09:39;;;;;;;109.70;67.07;;;11.00;99.90;;;;;;5088244;28;20048;-77
2022/01/01 05:12:05;;;;;;;108.97;64.70;;;11.00;99.90;;;;;;5083619;28;20098;-77
2022/01/01 05:14:31;;;;;;;98.20;61.50;;;11.00;99.90;;;;;;5085877;28;20043;-77
2022/01/01 05:16:57;;;;;;;99.30;59.63;;;11.00;99.90;;;;;;5090662;28;20076;-77
2022/01/01 05:19:23;;;;;;;101.03;58.67;;;11.10;99.90;;;;;;5086502;28;20468;-77
2022/01/01 05:21:50;;;;;;;96.32;60.47;;;11.00;99.90;;;;;;5083269;28;20028;-78
2022/01/01 05:24:18;;;;;;;97.13;56.63;;;11.10;99.90;;;;;;5086238;28;20069;-77
2022/01/01 05:26:45;;;;;;;100.20;53.60;;;11.10;99.90;;;;;;5087085;28;20058;-77
2022/01/01 05:29:11;;;;;;;95.43;52.47;;;11.10;99.90;;;;;;5081330;28;20119;-77
2022/01/01 05:31:36;;;;;;;98.78;53.67;;;11.10;99.90;;;;;;5087247;28;20845;-77
2022/01/01 05:34:03;;;;;;;87.38;48.78;;;11.10;99.90;;;;;;5088680;28;20043;-77
2022/01/01 05:36:29;;;;;;;84.05;45.22;;;11.10;99.90;;;;;;5086886;28;20111;-78
2022/01/01 05:38:55;;;;;;;78.95;42.35;;;11.10;99.90;;;;;;5085861;28;20085;-77
2022/01/01 05:41:21;;;;;;;79.32;40.88;;;11.10;99.90;;;;;;5086883;28;20036;-77
2022/01/01 05:43:47;;;;;;;85.13;42.22;;;11.10;99.90;;;;;;5085001;28;20043;-77
2022/01/01 05:46:12;;;;;;;82.80;40.60;;;11.00;99.90;;;;;;5089210;28;20064;-77
2022/01/01 05:48:38;;;;;;;82.90;40.35;;;11.00;99.90;;;;;;5086037;28;20048;-77
2022/01/01 05:51:04;;;;;;;80.55;37.30;;;11.00;99.90;;;;;;5085695;28;20154;-77
2022/01/01 05:53:30;;;;;;;84.18;37.03;;;11.10;99.90;;;;;;5083719;28;20036;-77
2022/01/01 05:55:56;;;;;;;85.43;36.40;;;11.10;99.90;;;;;;5115405;27;20452;-77
2022/01/01 05:58:21;;;;;;;70.47;35.28;;;11.10;99.90;;;;;;5089126;28;20032;-77
2022/01/01 06:00:47;;;;;;;80.88;34.65;;;11.10;99.90;;;;;;5088108;28;20031;-77
2022/01/01 06:03:15;;;;;;;78.75;31.92;;;11.20;99.90;;;;;;5082478;28;20598;-77
2022/01/01 06:05:41;;;;;;;71.03;32.10;;;11.20;99.90;;;;;;5084408;28;20959;-77
2022/01/01 06:08:07;;;;;;;71.65;31.23;;;11.20;99.90;;;;;;5087132;28;20040;-77
2022/01/01 06:10:32;;;;;;;70.95;31.65;;;11.20;99.90;;;;;;5117392;27;20093;-77
2022/01/01 06:12:58;;;;;;;68.72;29.88;;;11.20;99.90;;;;;;5086152;28;20031;-77
2022/01/01 06:15:24;;;;;;;72.40;28.83;;;11.20;99.90;;;;;;5084036;28;20527;-78
2022/01/01 06:17:50;;;;;;;73.50;27.58;;;11.20;99.90;;;;;;5086085;28;20043;-78
2022/01/01 06:20:16;;;;;;;60.05;26.50;;;11.20;99.90;;;;;;5091492;28;20490;-78
2022/01/01 06:22:42;;;;;;;60.95;26.10;;;11.30;99.90;;;;;;5083258;28;20039;-78
2022/01/01 06:25:08;;;;;;;77.63;26.35;;;11.20;99.90;;;;;;5087922;28;20051;-77
2022/01/01 06:27:34;;;;;;;60.55;23.67;;;11.30;99.90;;;;;;5087537;28;20119;-77
2022/01/01 06:30:00;;;;;;;62.25;25.25;;;11.30;99.90;;;;;;5085199;28;20119;-77
2022/01/01 06:32:25;;;;;;;57.28;25.75;;;11.30;99.90;;;;;;5079954;28;20089;-77
2022/01/01 06:34:51;;;;;;;67.80;25.60;;;11.30;99.90;;;;;;5089529;28;20109;-78
2022/01/01 06:37:17;;;;;;;67.85;26.17;;;11.40;99.90;;;;;;5086034;28;20047;-77
2022/01/01 06:39:43;;;;;;;69.78;26.05;;;11.30;99.90;;;;;;5089161;28;20389;-77
2022/01/01 06:42:09;;;;;;;64.20;26.98;;;11.40;99.90;;;;;;5082876;28;20043;-77
2022/01/01 06:44:35;;;;;;;69.38;27.90;;;11.30;99.90;;;;;;5120356;27;20066;-77
2022/01/01 06:47:00;;;;;;;68.43;28.20;;;11.40;99.90;;;;;;5083107;28;20040;-77
2022/01/01 06:49:26;;;;;;;66.47;27.95;;;11.30;99.90;;;;;;5088546;28;20033;-77
2022/01/01 06:51:51;;;;;;;65.82;27.10;;;11.40;99.90;;;;;;5082652;28;20048;-77
2022/01/01 06:54:17;;;;;;;66.07;27.63;;;11.30;99.90;;;;;;5087397;28;20040;-77
2022/01/01 06:56:43;;;;;;;68.57;28.50;;;11.40;99.90;;;;;;5116940;27;20163;-77
2022/01/01 06:59:09;;;;;;;61.35;28.20;;;11.40;99.90;;;;;;5084773;28;20062;-77
2022/01/01 07:01:36;;;;;;;58.17;27.30;;;11.40;99.90;;;;;;5081220;28;20048;-77
2022/01/01 07:04:03;;;;;;;70.22;30.65;;;11.40;99.90;;;;;;5084873;28;20130;-77
2022/01/01 07:06:29;;;;;;;71.65;28.63;;;11.40;99.90;;;;;;5087152;28;20040;-77
2022/01/01 07:08:55;;;;;;;64.10;27.40;;;11.40;99.90;;;;;;5090576;28;20322;-77
2022/01/01 07:11:20;;;;;;;73.93;28.45;;;11.40;99.90;;;;;;5083365;28;20032;-77
2022/01/01 07:13:46;;;;;;;68.65;27.90;;;11.50;99.90;;;;;;5115017;27;20047;-77
2022/01/01 07:16:12;;;;;;;59.13;27.33;;;11.50;99.90;;;;;;5083318;28;20043;-77
2022/01/01 07:18:37;;;;;;;65.78;26.30;;;11.40;99.90;;;;;;5086259;28;20074;-77
2022/01/01 07:21:03;;;;;;;68.40;28.50;;;11.50;99.90;;;;;;5088980;28;20076;-77
2022/01/01 07:23:29;;;;;;;62.85;27.17;;;11.50;99.90;;;;;;5083313;28;20058;-77
2022/01/01 07:25:54;;;;;;;63.42;28.25;;;11.50;99.90;;;;;;5087039;28;20078;-77
2022/01/01 07:28:20;;;;;;;55.90;25.45;;;11.50;99.90;;;;;;5082046;28;20048;-78
2022/01/01 07:30:54;;;;;;;59.63;26.75;;;11.50;99.90;;;;;;5086598;28;20054;-75
2022/01/01 07:33:20;;;;;;;60.83;24.73;;;11.50;99.90;;;;;;5080710;28;20939;-75
2022/01/01 07:35:46;;;;;;;61.08;24.48;;;11.50;99.90;;;;;;5085081;28;20056;-75
2022/01/01 07:38:12;;;;;;;65.07;25.85;;;11.50;99.90;;;;;;5087724;28;20039;-75
2022/01/01 07:40:39;;;;;;;55.28;26.15;;;11.50;99.90;;;;;;5083877;28;20541;-75
2022/01/01 07:43:12;;;;;;;58.92;25.40;;;11.50;99.90;;;;;;5083462;28;20040;-75
2022/01/01 07:45:39;;;;;;;62.53;25.50;;;11.50;99.90;;;;;;5086112;28;20047;-75
2022/01/01 07:48:05;;;;;;;50.90;25.20;;;11.60;99.90;;;;;;5116608;27;20123;-75
2022/01/01 07:50:31;;;;;;;59.58;26.55;;;11.50;99.90;;;;;;5081557;28;20048;-75
2022/01/01 07:52:57;;;;;;;55.92;26.42;;;11.60;99.90;;;;;;5062591;28;20051;-74
2022/01/01 07:55:22;;;;;;;51.88;26.67;;;11.60;99.90;;;;;;5083215;28;20035;-75
2022/01/01 07:57:48;;;;;;;53.67;26.30;;;11.60;99.90;;;;;;5086592;28;20032;-75
2022/01/01 08:00:15;;;;;;;58.00;26.98;;;11.70;99.90;;;;;;5082056;28;20033;-75
2022/01/01 08:02:45;;;;;;;51.90;28.05;;;11.70;99.90;;;;;;5082316;28;20063;-75
2022/01/01 08:05:13;;;;;;;54.35;28.23;;;11.70;99.90;;;;;;5097675;27;20055;-75
2022/01/01 08:07:39;;;;;;;55.47;28.67;;;11.70;99.90;;;;;;5115556;27;20101;-75
2022/01/01 08:10:06;;;;;;;60.15;27.65;;;11.70;99.90;;;;;;5082924;28;20062;-75
2022/01/01 08:12:32;;;;;;;59.17;27.40;;;11.80;99.90;;;;;;5081608;28;20036;-75
2022/01/01 08:14:58;;;;;;;51.80;28.48;;;11.80;99.90;;;;;;5081310;28;20453;-75
2022/01/01 08:17:24;;;;;;;55.75;30.40;;;11.80;99.90;;;;;;5079472;28;20056;-75
2022/01/01 08:19:51;;;;;;;54.30;28.85;;;11.80;99.90;;;;;;5083597;28;20055;-75
2022/01/01 08:22:17;;;;;;;47.63;27.00;;;11.80;99.90;;;;;;5077134;28;20135;-75
2022/01/01 08:24:43;;;;;;;55.15;27.67;;;11.80;99.90;;;;;;5080958;28;20040;-75
2022/01/01 08:27:09;;;;;;;52.75;28.15;;;11.90;99.90;;;;;;5083020;28;20066;-75
2022/01/01 08:29:36;;;;;;;53.03;29.20;;;11.90;99.90;;;;;;5079791;28;20513;-75
2022/01/01 08:32:02;;;;;;;54.25;28.92;;;11.90;99.90;;;;;;5082389;28;20082;-74
2022/01/01 08:34:28;;;;;;;55.80;29.10;;;11.90;99.90;;;;;;5081610;28;20064;-75
2022/01/01 08:36:53;;;;;;;65.43;30.95;;;11.90;99.90;;;;;;5081845;28;20044;-75
2022/01/01 08:39:19;;;;;;;49.45;28.90;;;11.90;99.90;;;;;;5078929;28;20097;-75
2022/01/01 08:41:46;;;;;;;47.10;27.42;;;11.90;99.90;;;;;;5084846;28;20040;-75
2022/01/01 08:44:12;;;;;;;54.50;30.35;;;11.90;99.90;;;;;;5112942;27;20032;-75
2022/01/01 08:46:39;;;;;;;54.30;28.08;;;11.90;99.90;;;;;;5082412;28;20035;-75
2022/01/01 08:49:05;;;;;;;55.58;27.77;;;12.00;99.90;;;;;;5078842;28;20482;-75
2022/01/01 08:51:34;;;;;;;55.13;26.77;;;12.00;99.90;;;;;;5064717;28;20074;-75
2022/01/01 08:54:00;;;;;;;51.10;26.13;;;12.00;99.90;;;;;;5083570;28;20032;-74
2022/01/01 08:56:26;;;;;;;46.97;26.63;;;12.00;99.90;;;;;;5085575;28;20081;-75
2022/01/01 08:58:52;;;;;;;46.15;26.42;;;12.00;99.90;;;;;;5084571;28;20043;-75
2022/01/01 09:01:18;;;;;;;51.88;26.17;;;12.00;99.90;;;;;;5082525;28;20123;-75
2022/01/01 09:03:44;;;;;;;48.38;25.63;;;12.00;99.90;;;;;;5081336;28;20477;-75
2022/01/01 09:06:10;;;;;;;45.40;26.73;;;12.00;99.90;;;;;;5082490;28;20048;-75
2022/01/01 09:08:39;;;;;;;49.95;25.35;;;12.00;99.90;;;;;;5081629;28;20047;-74
2022/01/01 09:11:05;;;;;;;46.67;25.75;;;12.10;99.90;;;;;;5088470;28;20028;-75
2022/01/01 09:13:31;;;;;;;50.00;26.88;;;12.00;99.90;;;;;;5085164;28;20063;-75
2022/01/01 09:15:58;;;;;;;46.53;25.83;;;12.10;99.90;;;;;;5085430;28;20066;-75
2022/01/01 09:18:23;;;;;;;44.60;25.30;;;12.10;99.90;;;;;;5085452;28;20517;-75
2022/01/01 09:20:49;;;;;;;46.80;24.10;;;12.10;99.90;;;;;;5088992;28;20032;-75
2022/01/01 09:23:17;;;;;;;48.70;24.33;;;12.20;99.90;;;;;;5085025;28;20032;-75
2022/01/01 09:25:42;;;;;;;45.38;24.23;;;12.20;99.90;;;;;;5084407;28;20134;-75
2022/01/01 09:28:08;;;;;;;43.25;24.27;;;12.30;99.90;;;;;;5086513;28;20553;-75
2022/01/01 09:30:34;;;;;;;36.58;22.25;;;12.30;99.90;;;;;;5083488;28;20048;-75
2022/01/01 09:33:00;;;;;;;32.88;21.88;;;12.30;99.90;;;;;;5079131;28;20130;-74
2022/01/01 09:35:26;;;;;;;35.97;21.45;;;12.30;99.90;;;;;;5082967;28;20126;-74
2022/01/01 09:37:52;;;;;;;39.67;21.27;;;12.40;99.90;;;;;;5081744;28;20032;-74
2022/01/01 09:40:18;;;;;;;30.95;20.15;;;12.40;99.90;;;;;;5116394;27;20051;-74
2022/01/01 09:42:44;;;;;;;38.38;20.38;;;12.40;99.90;;;;;;5082798;28;20040;-73
2022/01/01 09:45:10;;;;;;;31.48;20.00;;;12.40;99.90;;;;;;5115609;27;20173;-72
2022/01/01 09:47:36;;;;;;;33.15;19.42;;;12.50;99.90;;;;;;5085955;28;20169;-69
2022/01/01 09:50:05;;;;;;;34.63;19.92;;;12.50;99.90;;;;;;5083670;28;20082;-72
2022/01/01 09:52:31;;;;;;;34.00;20.17;;;12.50;99.90;;;;;;5113103;27;20032;-73
2022/01/01 09:54:57;;;;;;;31.63;18.98;;;12.50;99.90;;;;;;5083934;28;20040;-73
2022/01/01 09:57:22;;;;;;;36.72;19.27;;;12.50;99.90;;;;;;5088563;28;20043;-73
2022/01/01 09:59:48;;;;;;;28.45;17.77;;;12.50;99.90;;;;;;5084942;28;20038;-73
2022/01/01 10:02:14;;;;;;;25.52;16.67;;;12.50;99.90;;;;;;5083616;28;20048;-73
2022/01/01 10:04:52;;;;;;;29.40;16.38;;;12.50;99.90;;;;;;5116513;27;20046;-73
2022/01/01 10:07:27;;;;;;;28.23;16.40;;;12.50;99.90;;;;;;5091544;28;20043;-73
2022/01/01 10:09:53;;;;;;;28.50;15.43;;;12.60;99.90;;;;;;5102144;27;20043;-73
2022/01/01 10:12:19;;;;;;;24.77;14.80;;;12.60;99.90;;;;;;5116266;27;20040;-73
2022/01/01 10:14:47;;;;;;;27.23;12.60;;;12.60;99.90;;;;;;5084183;28;20032;-73
2022/01/01 10:17:16;;;;;;;30.08;15.60;;;12.60;99.90;;;;;;5082169;28;20039;-73
2022/01/01 10:19:42;;;;;;;23.02;13.38;;;12.60;99.90;;;;;;5080713;28;20040;-73
2022/01/01 10:22:12;;;;;;;25.75;13.68;;;12.60;99.90;;;;;;5095808;27;20422;-73
2022/01/01 10:27:42;;;;;;;23.38;11.90;;;12.60;99.90;;;;;;5079870;28;20084;-73
2022/01/01 10:30:09;;;;;;;23.52;12.43;;;12.60;99.90;;;;;;5081438;28;20064;-73
2022/01/01 10:32:36;;;;;;;19.75;11.20;;;12.60;99.90;;;;;;5079235;28;20048;-73
2022/01/01 10:35:02;;;;;;;21.70;11.25;;;12.50;99.90;;;;;;5082201;28;20134;-73
2022/01/01 10:37:29;;;;;;;29.08;12.48;;;12.50;99.90;;;;;;5113082;27;20036;-73
2022/01/01 10:39:55;;;;;;;20.30;10.05;;;12.60;99.90;;;;;;5081585;28;20522;-73
2022/01/01 10:42:21;;;;;;;19.23;9.68;;;12.50;99.90;;;;;;5079386;28;20123;-73
2022/01/01 10:44:52;;;;;;;21.80;10.20;;;12.60;99.90;;;;;;5116565;27;20046;-73
2022/01/01 10:47:25;;;;;;;19.70;9.38;;;12.60;99.90;;;;;;5083303;28;20127;-70
2022/01/01 10:50:14;;;;;;;17.27;9.88;;;12.60;99.90;;;;;;5080519;28;20032;-71
2022/01/01 10:52:47;;;;;;;15.80;8.57;;;12.70;99.90;;;;;;5082513;28;20035;-71
2022/01/01 10:55:16;;;;;;;18.50;10.85;;;12.60;99.90;;;;;;5083558;28;20867;-71
2022/01/01 10:57:55;;;;;;;19.20;8.80;;;12.60;99.90;;;;;;5080502;28;20039;-72
2022/01/01 11:00:23;;;;;;;19.70;8.02;;;12.70;99.90;;;;;;5081626;28;20074;-74
2022/01/01 11:02:51;;;;;;;16.52;8.38;;;12.70;99.90;;;;;;5081137;28;20044;-71
2022/01/01 11:05:31;;;;;;;16.90;8.73;;;12.70;99.90;;;;;;5083205;28;20114;-71
2022/01/01 11:07:57;;;;;;;20.65;9.23;;;12.70;99.90;;;;;;5084464;28;20071;-71
2022/01/01 11:10:24;;;;;;;30.23;11.10;;;12.60;99.90;;;;;;5083241;28;20119;-71
2022/01/01 11:12:51;;;;;;;21.00;8.10;;;12.60;99.90;;;;;;5083332;28;20050;-78
2022/01/01 11:15:16;;;;;;;17.02;8.55;;;12.70;99.90;;;;;;5085788;28;20051;-74
2022/01/01 11:17:43;;;;;;;32.20;9.73;;;12.60;99.90;;;;;;5087179;28;20039;-74
2022/01/01 11:20:10;;;;;;;10.07;5.78;;;12.60;99.90;;;;;;5083212;28;20047;-74
2022/01/01 11:22:35;;;;;;;13.85;6.32;;;12.70;99.90;;;;;;5080105;28;20056;-73
2022/01/01 11:25:03;;;;;;;17.17;6.82;;;12.60;99.90;;;;;;5085001;28;20044;-74
2022/01/01 11:27:28;;;;;;;15.60;6.18;;;12.60;99.90;;;;;;5066202;28;20089;-75
2022/01/01 11:29:56;;;;;;;12.43;5.85;;;12.70;99.90;;;;;;5085601;28;20044;-74
2022/01/01 11:32:24;;;;;;;10.38;5.45;;;12.60;99.90;;;;;;5086337;28;20040;-76
2022/01/01 11:34:54;;;;;;;17.48;7.57;;;12.60;99.90;;;;;;5086317;28;20043;-76
2022/01/01 11:37:22;;;;;;;14.75;6.03;;;12.70;99.90;;;;;;5086234;28;20064;-83
2022/01/01 11:39:54;;;;;;;16.02;5.57;;;12.70;99.90;;;;;;5125909;27;20475;-78
2022/01/01 11:42:20;;;;;;;12.10;5.10;;;12.70;99.90;;;;;;5099058;27;20494;-78
2022/01/01 11:44:54;;;;;;;15.80;6.22;;;12.70;99.90;;;;;;5082396;28;20040;-82
2022/01/01 11:47:24;;;;;;;16.33;5.72;;;12.80;99.90;;;;;;5082594;28;20139;-78
2022/01/01 11:49:52;;;;;;;14.65;5.38;;;12.80;99.90;;;;;;5096180;27;20050;-78
2022/01/01 11:52:39;;;;;;;13.23;5.47;;;12.80;99.90;;;;;;5081361;28;20059;-78
2022/01/01 11:55:12;;;;;;;14.80;4.80;;;12.80;99.90;;;;;;5088208;28;20036;-74
2022/01/01 11:57:38;;;;;;;11.68;4.93;;;12.90;99.90;;;;;;5092679;28;20050;-75
2022/01/01 12:00:13;;;;;;;17.80;5.50;;;12.90;99.90;;;;;;5085782;28;20044;-72
2022/01/01 12:02:46;;;;;;;11.40;5.20;;;12.90;99.90;;;;;;5086788;28;20050;-72
2022/01/01 12:05:23;;;;;;;15.88;4.78;;;13.00;99.90;;;;;;5088391;28;20042;-75
2022/01/01 12:07:53;;;;;;;12.07;4.95;;;12.90;99.90;;;;;;5090592;28;20127;-80
2022/01/01 12:10:21;;;;;;;10.52;4.55;;;12.90;99.90;;;;;;5090574;28;20036;-84
2022/01/01 12:12:49;;;;;;;14.45;4.93;;;12.90;99.90;;;;;;5088451;28;20052;-81
2022/01/01 12:15:24;;;;;;;9.63;4.80;;;12.90;99.90;;;;;;5100584;27;20515;-78
2022/01/01 12:17:53;;;;;;;10.93;4.90;;;13.00;99.90;;;;;;5088059;28;20040;-79
2022/01/01 12:20:22;;;;;;;12.48;5.53;;;13.00;99.90;;;;;;5087370;28;20048;-79
2022/01/01 12:22:49;;;;;;;12.75;4.68;;;13.00;99.90;;;;;;5089053;28;20723;-79
2022/01/01 12:25:16;;;;;;;10.65;4.85;;;13.00;99.90;;;;;;5085656;28;20044;-79
2022/01/01 12:27:47;;;;;;;11.00;4.85;;;13.00;99.90;;;;;;5088488;28;20041;-79
2022/01/01 12:30:37;;;;;;;13.10;4.90;;;13.00;99.90;;;;;;5089645;28;20052;-79
2022/01/01 12:33:04;;;;;;;14.55;5.63;;;13.00;99.90;;;;;;5081939;28;20493;-79
2022/01/01 12:35:46;;;;;;;9.82;4.63;;;13.00;99.90;;;;;;5087000;28;20120;-79